Chitungwiza, Zimbabwe
Current Conditions -  °F | °C
As of 7:00 PM on Saturday 25 Oct 2014 (Local Time) from FQCH Reporting Station
Broken Clouds Broken Clouds  
Wind Chill: 75°   Ceiling: 1500
Heat Index: 75°   Visibility: 6mi
Dew Point: 63°   Wind: 12mph
Humidity: 65%   Direction: 120°ESE
Pressure: 30.09"   Gusts: NA
Location:  18.78°S, 32.62°E
Report Text: FQCH 251700Z 12010KT 9999 BKN015 24/17 Q1019
Loading
Personal Weather Stations






























Interactive Weather Map
Tropical Storm Tracking
New forecast layout! Learn more

10-Day Weather Forecast

Advertisements
Track Severe Weather on mobile